sensor_id;sensor_type;location;lat;lon;timestamp;P1;durP1;ratioP1;P2;durP2;ratioP2
870;SDS011;422;51.280;7.236;2022-07-19T00:01:49;6.70;;;4.33;;
870;SDS011;422;51.280;7.236;2022-07-19T00:04:20;6.90;;;4.67;;
870;SDS011;422;51.280;7.236;2022-07-19T00:06:49;5.63;;;5.00;;
870;SDS011;422;51.280;7.236;2022-07-19T00:09:21;3.87;;;3.43;;
870;SDS011;422;51.280;7.236;2022-07-19T00:11:53;7.33;;;4.40;;
870;SDS011;422;51.280;7.236;2022-07-19T00:14:20;8.37;;;3.90;;
870;SDS011;422;51.280;7.236;2022-07-19T00:16:48;6.33;;;5.03;;
870;SDS011;422;51.280;7.236;2022-07-19T00:19:15;5.80;;;3.90;;
870;SDS011;422;51.280;7.236;2022-07-19T00:21:44;9.63;;;4.03;;
870;SDS011;422;51.280;7.236;2022-07-19T00:24:13;5.00;;;4.40;;
870;SDS011;422;51.280;7.236;2022-07-19T00:26:41;5.50;;;4.47;;
870;SDS011;422;51.280;7.236;2022-07-19T00:29:08;5.20;;;4.10;;
870;SDS011;422;51.280;7.236;2022-07-19T00:31:36;7.53;;;4.60;;
870;SDS011;422;51.280;7.236;2022-07-19T00:34:03;4.77;;;3.97;;
870;SDS011;422;51.280;7.236;2022-07-19T00:36:30;4.40;;;4.00;;
870;SDS011;422;51.280;7.236;2022-07-19T00:39:02;6.23;;;4.60;;
870;SDS011;422;51.280;7.236;2022-07-19T00:41:37;5.47;;;4.53;;
870;SDS011;422;51.280;7.236;2022-07-19T00:44:08;6.83;;;4.83;;
870;SDS011;422;51.280;7.236;2022-07-19T00:46:37;4.80;;;3.90;;
870;SDS011;422;51.280;7.236;2022-07-19T00:49:08;5.17;;;4.67;;
870;SDS011;422;51.280;7.236;2022-07-19T00:51:38;7.23;;;4.27;;
870;SDS011;422;51.280;7.236;2022-07-19T00:54:09;6.43;;;4.40;;
870;SDS011;422;51.280;7.236;2022-07-19T00:56:40;5.23;;;4.73;;
870;SDS011;422;51.280;7.236;2022-07-19T00:59:09;7.30;;;4.57;;
870;SDS011;422;51.280;7.236;2022-07-19T01:01:38;5.10;;;3.73;;
870;SDS011;422;51.280;7.236;2022-07-19T01:04:06;6.20;;;4.53;;
870;SDS011;422;51.280;7.236;2022-07-19T01:06:34;5.80;;;4.70;;
870;SDS011;422;51.280;7.236;2022-07-19T01:09:01;5.27;;;4.77;;
870;SDS011;422;51.280;7.236;2022-07-19T01:11:33;5.13;;;4.53;;
870;SDS011;422;51.280;7.236;2022-07-19T01:14:00;5.53;;;4.67;;
870;SDS011;422;51.280;7.236;2022-07-19T01:16:27;6.27;;;4.90;;
870;SDS011;422;51.280;7.236;2022-07-19T01:18:57;4.67;;;4.17;;
870;SDS011;422;51.280;7.236;2022-07-19T01:21:26;7.33;;;5.50;;
870;SDS011;422;51.280;7.236;2022-07-19T01:23:53;5.20;;;4.80;;
870;SDS011;422;51.280;7.236;2022-07-19T01:26:21;7.00;;;4.43;;
870;SDS011;422;51.280;7.236;2022-07-19T01:28:49;5.20;;;4.80;;
870;SDS011;422;51.280;7.236;2022-07-19T01:31:17;5.67;;;4.63;;
870;SDS011;422;51.280;7.236;2022-07-19T01:33:46;7.70;;;4.77;;
870;SDS011;422;51.280;7.236;2022-07-19T01:36:13;6.07;;;4.57;;
870;SDS011;422;51.280;7.236;2022-07-19T01:38:45;7.13;;;4.70;;
870;SDS011;422;51.280;7.236;2022-07-19T01:41:14;6.60;;;4.07;;
870;SDS011;422;51.280;7.236;2022-07-19T01:43:41;6.83;;;4.80;;
870;SDS011;422;51.280;7.236;2022-07-19T01:46:10;4.83;;;4.37;;
870;SDS011;422;51.280;7.236;2022-07-19T01:48:40;5.77;;;4.67;;
870;SDS011;422;51.280;7.236;2022-07-19T01:51:09;6.67;;;5.70;;
870;SDS011;422;51.280;7.236;2022-07-19T01:53:36;7.60;;;5.50;;
870;SDS011;422;51.280;7.236;2022-07-19T01:56:05;8.27;;;5.20;;
870;SDS011;422;51.280;7.236;2022-07-19T01:58:33;6.70;;;4.97;;
870;SDS011;422;51.280;7.236;2022-07-19T02:01:04;4.93;;;4.50;;
870;SDS011;422;51.280;7.236;2022-07-19T02:03:31;5.23;;;4.57;;
870;SDS011;422;51.280;7.236;2022-07-19T02:05:59;6.20;;;4.70;;
870;SDS011;422;51.280;7.236;2022-07-19T02:08:26;6.40;;;5.80;;
870;SDS011;422;51.280;7.236;2022-07-19T02:10:58;6.03;;;4.73;;
870;SDS011;422;51.280;7.236;2022-07-19T02:13:49;6.30;;;4.90;;
870;SDS011;422;51.280;7.236;2022-07-19T02:16:16;5.50;;;4.70;;
870;SDS011;422;51.280;7.236;2022-07-19T02:18:44;4.90;;;4.40;;
870;SDS011;422;51.280;7.236;2022-07-19T02:21:11;4.37;;;3.97;;
870;SDS011;422;51.280;7.236;2022-07-19T02:23:40;5.00;;;4.50;;
870;SDS011;422;51.280;7.236;2022-07-19T02:26:07;13.93;;;5.33;;
870;SDS011;422;51.280;7.236;2022-07-19T02:28:37;5.77;;;4.50;;
870;SDS011;422;51.280;7.236;2022-07-19T02:31:09;5.33;;;4.90;;
870;SDS011;422;51.280;7.236;2022-07-19T02:33:38;5.10;;;4.27;;
870;SDS011;422;51.280;7.236;2022-07-19T02:36:06;5.80;;;4.40;;
870;SDS011;422;51.280;7.236;2022-07-19T02:38:33;5.57;;;5.07;;
870;SDS011;422;51.280;7.236;2022-07-19T02:41:02;5.93;;;5.43;;
870;SDS011;422;51.280;7.236;2022-07-19T02:43:32;8.47;;;5.30;;
870;SDS011;422;51.280;7.236;2022-07-19T02:46:00;8.47;;;5.00;;
870;SDS011;422;51.280;7.236;2022-07-19T02:48:28;10.03;;;5.57;;
870;SDS011;422;51.280;7.236;2022-07-19T02:50:59;9.60;;;5.20;;
870;SDS011;422;51.280;7.236;2022-07-19T02:53:26;6.17;;;5.17;;
870;SDS011;422;51.280;7.236;2022-07-19T02:55:54;5.73;;;5.20;;
870;SDS011;422;51.280;7.236;2022-07-19T02:58:24;6.47;;;4.83;;
870;SDS011;422;51.280;7.236;2022-07-19T03:00:53;6.60;;;5.30;;
870;SDS011;422;51.280;7.236;2022-07-19T03:03:24;5.33;;;4.80;;
870;SDS011;422;51.280;7.236;2022-07-19T03:06:12;5.20;;;4.70;;
870;SDS011;422;51.280;7.236;2022-07-19T03:08:42;7.97;;;5.20;;
870;SDS011;422;51.280;7.236;2022-07-19T03:11:09;8.60;;;5.00;;
870;SDS011;422;51.280;7.236;2022-07-19T03:13:40;6.10;;;4.87;;
870;SDS011;422;51.280;7.236;2022-07-19T03:16:07;6.00;;;5.30;;
870;SDS011;422;51.280;7.236;2022-07-19T03:18:35;6.33;;;5.73;;
870;SDS011;422;51.280;7.236;2022-07-19T03:21:02;6.87;;;5.80;;
870;SDS011;422;51.280;7.236;2022-07-19T03:23:35;6.33;;;5.73;;
870;SDS011;422;51.280;7.236;2022-07-19T03:26:05;5.20;;;4.63;;
870;SDS011;422;51.280;7.236;2022-07-19T03:28:35;5.10;;;4.60;;
870;SDS011;422;51.280;7.236;2022-07-19T03:31:05;6.13;;;5.53;;
870;SDS011;422;51.280;7.236;2022-07-19T03:33:35;5.90;;;5.40;;
870;SDS011;422;51.280;7.236;2022-07-19T03:36:03;12.93;;;6.10;;
870;SDS011;422;51.280;7.236;2022-07-19T03:38:30;5.70;;;4.93;;
870;SDS011;422;51.280;7.236;2022-07-19T03:41:01;5.23;;;4.73;;
870;SDS011;422;51.280;7.236;2022-07-19T03:43:31;5.60;;;5.00;;
870;SDS011;422;51.280;7.236;2022-07-19T03:45:58;6.13;;;4.63;;
870;SDS011;422;51.280;7.236;2022-07-19T03:48:27;6.23;;;5.07;;
870;SDS011;422;51.280;7.236;2022-07-19T03:50:55;5.50;;;4.87;;
870;SDS011;422;51.280;7.236;2022-07-19T03:53:22;6.50;;;5.90;;
870;SDS011;422;51.280;7.236;2022-07-19T03:55:49;5.50;;;5.10;;
870;SDS011;422;51.280;7.236;2022-07-19T03:58:22;6.10;;;5.60;;
870;SDS011;422;51.280;7.236;2022-07-19T04:00:49;7.87;;;6.23;;
870;SDS011;422;51.280;7.236;2022-07-19T04:03:19;5.70;;;4.80;;
870;SDS011;422;51.280;7.236;2022-07-19T04:05:47;5.70;;;5.20;;
870;SDS011;422;51.280;7.236;2022-07-19T04:08:14;8.03;;;5.27;;
870;SDS011;422;51.280;7.236;2022-07-19T04:10:42;8.23;;;5.33;;
870;SDS011;422;51.280;7.236;2022-07-19T04:13:09;7.03;;;5.60;;
870;SDS011;422;51.280;7.236;2022-07-19T04:15:37;5.60;;;5.10;;
870;SDS011;422;51.280;7.236;2022-07-19T04:18:07;6.20;;;5.60;;
870;SDS011;422;51.280;7.236;2022-07-19T04:20:38;8.73;;;5.40;;
870;SDS011;422;51.280;7.236;2022-07-19T04:23:06;8.23;;;5.37;;
870;SDS011;422;51.280;7.236;2022-07-19T04:25:33;6.17;;;5.57;;
870;SDS011;422;51.280;7.236;2022-07-19T04:28:01;6.60;;;5.77;;
870;SDS011;422;51.280;7.236;2022-07-19T04:30:36;5.90;;;4.70;;
870;SDS011;422;51.280;7.236;2022-07-19T04:33:05;5.47;;;4.97;;
870;SDS011;422;51.280;7.236;2022-07-19T04:35:33;8.80;;;5.47;;
870;SDS011;422;51.280;7.236;2022-07-19T04:38:02;6.10;;;5.50;;
870;SDS011;422;51.280;7.236;2022-07-19T04:40:29;5.70;;;5.20;;
870;SDS011;422;51.280;7.236;2022-07-19T04:42:57;6.60;;;5.70;;
870;SDS011;422;51.280;7.236;2022-07-19T04:45:25;11.73;;;5.67;;
870;SDS011;422;51.280;7.236;2022-07-19T04:47:54;7.03;;;5.63;;
870;SDS011;422;51.280;7.236;2022-07-19T04:50:21;5.70;;;4.93;;
870;SDS011;422;51.280;7.236;2022-07-19T04:52:50;8.10;;;5.50;;
870;SDS011;422;51.280;7.236;2022-07-19T04:55:18;10.20;;;5.20;;
870;SDS011;422;51.280;7.236;2022-07-19T04:57:45;7.80;;;5.87;;
870;SDS011;422;51.280;7.236;2022-07-19T05:00:12;6.00;;;5.50;;
870;SDS011;422;51.280;7.236;2022-07-19T05:02:40;7.30;;;6.10;;
870;SDS011;422;51.280;7.236;2022-07-19T05:05:11;10.00;;;5.30;;
870;SDS011;422;51.280;7.236;2022-07-19T05:07:39;7.40;;;6.07;;
870;SDS011;422;51.280;7.236;2022-07-19T05:10:07;6.57;;;5.90;;
870;SDS011;422;51.280;7.236;2022-07-19T05:12:36;8.70;;;6.00;;
870;SDS011;422;51.280;7.236;2022-07-19T05:15:04;7.07;;;5.53;;
870;SDS011;422;51.280;7.236;2022-07-19T05:17:34;8.07;;;5.93;;
870;SDS011;422;51.280;7.236;2022-07-19T05:20:02;7.27;;;5.63;;
870;SDS011;422;51.280;7.236;2022-07-19T05:22:31;6.50;;;5.90;;
870;SDS011;422;51.280;7.236;2022-07-19T05:24:59;8.13;;;5.77;;
870;SDS011;422;51.280;7.236;2022-07-19T05:27:26;7.33;;;5.93;;
870;SDS011;422;51.280;7.236;2022-07-19T05:29:53;6.07;;;5.20;;
870;SDS011;422;51.280;7.236;2022-07-19T05:32:21;7.50;;;5.73;;
870;SDS011;422;51.280;7.236;2022-07-19T05:34:52;5.13;;;4.63;;
870;SDS011;422;51.280;7.236;2022-07-19T05:37:24;4.63;;;4.23;;
870;SDS011;422;51.280;7.236;2022-07-19T05:39:52;7.00;;;4.47;;
870;SDS011;422;51.280;7.236;2022-07-19T05:42:21;13.93;;;5.97;;
870;SDS011;422;51.280;7.236;2022-07-19T05:44:49;9.57;;;4.53;;
870;SDS011;422;51.280;7.236;2022-07-19T05:47:16;6.57;;;5.13;;
870;SDS011;422;51.280;7.236;2022-07-19T05:49:43;5.57;;;3.80;;
870;SDS011;422;51.280;7.236;2022-07-19T05:52:11;8.27;;;4.53;;
870;SDS011;422;51.280;7.236;2022-07-19T05:54:38;7.80;;;4.83;;
870;SDS011;422;51.280;7.236;2022-07-19T05:57:16;5.90;;;4.80;;
870;SDS011;422;51.280;7.236;2022-07-19T05:59:44;5.07;;;4.57;;
870;SDS011;422;51.280;7.236;2022-07-19T06:02:11;5.17;;;4.70;;
870;SDS011;422;51.280;7.236;2022-07-19T06:04:40;6.60;;;4.57;;
870;SDS011;422;51.280;7.236;2022-07-19T06:07:09;4.80;;;3.80;;
870;SDS011;422;51.280;7.236;2022-07-19T06:09:38;4.53;;;3.47;;
870;SDS011;422;51.280;7.236;2022-07-19T06:12:05;5.63;;;5.13;;
870;SDS011;422;51.280;7.236;2022-07-19T06:14:34;5.33;;;4.27;;
870;SDS011;422;51.280;7.236;2022-07-19T06:17:01;3.60;;;3.30;;
870;SDS011;422;51.280;7.236;2022-07-19T06:19:32;3.90;;;3.60;;
870;SDS011;422;51.280;7.236;2022-07-19T06:21:59;4.23;;;3.83;;
870;SDS011;422;51.280;7.236;2022-07-19T06:24:27;6.00;;;3.30;;
870;SDS011;422;51.280;7.236;2022-07-19T06:26:57;4.10;;;3.63;;
870;SDS011;422;51.280;7.236;2022-07-19T06:29:24;7.50;;;4.17;;
870;SDS011;422;51.280;7.236;2022-07-19T06:32:00;6.60;;;3.23;;
870;SDS011;422;51.280;7.236;2022-07-19T06:34:31;4.60;;;4.13;;
870;SDS011;422;51.280;7.236;2022-07-19T06:37:05;7.23;;;4.70;;
870;SDS011;422;51.280;7.236;2022-07-19T06:39:32;5.40;;;4.07;;
870;SDS011;422;51.280;7.236;2022-07-19T06:42:02;5.13;;;3.23;;
870;SDS011;422;51.280;7.236;2022-07-19T06:44:29;6.13;;;3.90;;
870;SDS011;422;51.280;7.236;2022-07-19T06:46:56;4.50;;;3.70;;
870;SDS011;422;51.280;7.236;2022-07-19T06:49:26;8.03;;;4.40;;
870;SDS011;422;51.280;7.236;2022-07-19T06:51:53;3.90;;;3.60;;
870;SDS011;422;51.280;7.236;2022-07-19T06:54:21;4.40;;;4.00;;
870;SDS011;422;51.280;7.236;2022-07-19T06:56:52;7.20;;;3.87;;
870;SDS011;422;51.280;7.236;2022-07-19T06:59:24;7.77;;;3.77;;
870;SDS011;422;51.280;7.236;2022-07-19T07:01:54;3.80;;;3.30;;
870;SDS011;422;51.280;7.236;2022-07-19T07:04:26;11.07;;;4.00;;
870;SDS011;422;51.280;7.236;2022-07-19T07:06:53;3.63;;;2.90;;
870;SDS011;422;51.280;7.236;2022-07-19T07:09:20;4.60;;;3.10;;
870;SDS011;422;51.280;7.236;2022-07-19T07:11:49;3.90;;;3.60;;
870;SDS011;422;51.280;7.236;2022-07-19T07:14:21;6.20;;;4.00;;
870;SDS011;422;51.280;7.236;2022-07-19T07:16:49;5.57;;;3.37;;
870;SDS011;422;51.280;7.236;2022-07-19T07:19:16;4.43;;;3.77;;
870;SDS011;422;51.280;7.236;2022-07-19T07:21:45;4.23;;;3.60;;
870;SDS011;422;51.280;7.236;2022-07-19T07:24:13;4.60;;;3.17;;
870;SDS011;422;51.280;7.236;2022-07-19T07:26:42;6.87;;;3.67;;
870;SDS011;422;51.280;7.236;2022-07-19T07:29:13;7.63;;;3.40;;
870;SDS011;422;51.280;7.236;2022-07-19T07:31:42;3.87;;;3.03;;
870;SDS011;422;51.280;7.236;2022-07-19T07:34:10;3.57;;;3.23;;
870;SDS011;422;51.280;7.236;2022-07-19T07:36:37;6.07;;;3.97;;
870;SDS011;422;51.280;7.236;2022-07-19T07:39:06;4.67;;;3.40;;
870;SDS011;422;51.280;7.236;2022-07-19T07:41:33;3.00;;;2.80;;
870;SDS011;422;51.280;7.236;2022-07-19T07:44:00;6.20;;;3.93;;
870;SDS011;422;51.280;7.236;2022-07-19T07:46:27;5.40;;;3.40;;
870;SDS011;422;51.280;7.236;2022-07-19T07:48:54;4.10;;;3.80;;
870;SDS011;422;51.280;7.236;2022-07-19T07:51:22;4.13;;;3.23;;
870;SDS011;422;51.280;7.236;2022-07-19T07:53:51;8.20;;;4.13;;
870;SDS011;422;51.280;7.236;2022-07-19T07:56:19;7.10;;;3.57;;
870;SDS011;422;51.280;7.236;2022-07-19T07:58:47;7.10;;;3.90;;
870;SDS011;422;51.280;7.236;2022-07-19T08:01:15;3.73;;;3.43;;
870;SDS011;422;51.280;7.236;2022-07-19T08:03:43;4.00;;;3.57;;
870;SDS011;422;51.280;7.236;2022-07-19T08:06:10;10.63;;;3.43;;
870;SDS011;422;51.280;7.236;2022-07-19T08:08:37;4.57;;;3.40;;
870;SDS011;422;51.280;7.236;2022-07-19T08:11:05;4.33;;;3.93;;
870;SDS011;422;51.280;7.236;2022-07-19T08:13:38;4.43;;;3.47;;
870;SDS011;422;51.280;7.236;2022-07-19T08:16:07;5.30;;;3.80;;
870;SDS011;422;51.280;7.236;2022-07-19T08:18:34;5.57;;;3.80;;
870;SDS011;422;51.280;7.236;2022-07-19T08:21:04;9.97;;;4.37;;
870;SDS011;422;51.280;7.236;2022-07-19T08:23:31;3.80;;;3.20;;
870;SDS011;422;51.280;7.236;2022-07-19T08:26:01;3.80;;;3.20;;
870;SDS011;422;51.280;7.236;2022-07-19T08:28:29;5.63;;;3.70;;
870;SDS011;422;51.280;7.236;2022-07-19T08:31:01;6.10;;;3.80;;
870;SDS011;422;51.280;7.236;2022-07-19T08:33:28;3.40;;;3.10;;
870;SDS011;422;51.280;7.236;2022-07-19T08:35:56;3.63;;;3.33;;
870;SDS011;422;51.280;7.236;2022-07-19T08:38:24;6.80;;;4.40;;
870;SDS011;422;51.280;7.236;2022-07-19T08:40:52;4.50;;;3.90;;
870;SDS011;422;51.280;7.236;2022-07-19T08:43:20;4.17;;;3.43;;
870;SDS011;422;51.280;7.236;2022-07-19T08:45:48;4.93;;;3.93;;
870;SDS011;422;51.280;7.236;2022-07-19T08:48:17;7.03;;;3.23;;
870;SDS011;422;51.280;7.236;2022-07-19T08:50:46;3.90;;;3.47;;
870;SDS011;422;51.280;7.236;2022-07-19T08:53:15;5.23;;;3.83;;
870;SDS011;422;51.280;7.236;2022-07-19T08:55:56;13.23;;;4.53;;
870;SDS011;422;51.280;7.236;2022-07-19T08:58:23;4.60;;;4.00;;
870;SDS011;422;51.280;7.236;2022-07-19T09:00:51;5.37;;;4.50;;
870;SDS011;422;51.280;7.236;2022-07-19T09:03:23;3.77;;;3.47;;
870;SDS011;422;51.280;7.236;2022-07-19T09:06:02;3.23;;;3.00;;
870;SDS011;422;51.280;7.236;2022-07-19T09:08:30;4.13;;;3.83;;
870;SDS011;422;51.280;7.236;2022-07-19T09:11:00;5.53;;;4.10;;
870;SDS011;422;51.280;7.236;2022-07-19T09:13:50;8.03;;;3.60;;
870;SDS011;422;51.280;7.236;2022-07-19T09:16:19;5.50;;;3.67;;
870;SDS011;422;51.280;7.236;2022-07-19T09:18:49;6.00;;;2.97;;
870;SDS011;422;51.280;7.236;2022-07-19T09:21:29;4.60;;;3.43;;
870;SDS011;422;51.280;7.236;2022-07-19T09:23:59;4.10;;;3.70;;
870;SDS011;422;51.280;7.236;2022-07-19T09:26:29;4.30;;;3.90;;
870;SDS011;422;51.280;7.236;2022-07-19T09:31:57;6.57;;;4.57;;
870;SDS011;422;51.280;7.236;2022-07-19T09:34:33;5.33;;;3.50;;
870;SDS011;422;51.280;7.236;2022-07-19T09:39:54;4.50;;;3.37;;
870;SDS011;422;51.280;7.236;2022-07-19T09:42:23;5.40;;;3.67;;
870;SDS011;422;51.280;7.236;2022-07-19T09:45:00;5.73;;;3.83;;
870;SDS011;422;51.280;7.236;2022-07-19T09:47:34;5.60;;;3.50;;
870;SDS011;422;51.280;7.236;2022-07-19T09:50:07;5.80;;;3.80;;
870;SDS011;422;51.280;7.236;2022-07-19T09:52:35;5.97;;;3.80;;
870;SDS011;422;51.280;7.236;2022-07-19T09:55:08;4.03;;;3.53;;
870;SDS011;422;51.280;7.236;2022-07-19T09:57:39;6.37;;;3.70;;
870;SDS011;422;51.280;7.236;2022-07-19T10:00:10;4.40;;;3.80;;
870;SDS011;422;51.280;7.236;2022-07-19T10:02:40;7.73;;;4.00;;
870;SDS011;422;51.280;7.236;2022-07-19T10:05:13;4.33;;;3.90;;
870;SDS011;422;51.280;7.236;2022-07-19T10:07:43;3.70;;;3.40;;
870;SDS011;422;51.280;7.236;2022-07-19T10:10:12;7.50;;;3.90;;
870;SDS011;422;51.280;7.236;2022-07-19T10:12:46;3.63;;;3.33;;
870;SDS011;422;51.280;7.236;2022-07-19T10:15:16;4.40;;;3.17;;
870;SDS011;422;51.280;7.236;2022-07-19T10:20:42;6.15;;;3.80;;
870;SDS011;422;51.280;7.236;2022-07-19T10:25:56;4.55;;;3.88;;
870;SDS011;422;51.280;7.236;2022-07-19T10:28:28;4.57;;;4.18;;
870;SDS011;422;51.280;7.236;2022-07-19T10:31:01;3.97;;;3.60;;
870;SDS011;422;51.280;7.236;2022-07-19T10:33:31;5.43;;;3.95;;
870;SDS011;422;51.280;7.236;2022-07-19T10:39:19;5.15;;;3.88;;
870;SDS011;422;51.280;7.236;2022-07-19T10:56:35;3.40;;;3.10;;
870;SDS011;422;51.280;7.236;2022-07-19T10:59:04;3.28;;;2.97;;
870;SDS011;422;51.280;7.236;2022-07-19T11:01:35;4.07;;;3.42;;
870;SDS011;422;51.280;7.236;2022-07-19T11:04:25;4.00;;;3.20;;
870;SDS011;422;51.280;7.236;2022-07-19T11:07:13;3.75;;;3.45;;
870;SDS011;422;51.280;7.236;2022-07-19T11:09:49;3.57;;;3.27;;
870;SDS011;422;51.280;7.236;2022-07-19T11:12:22;3.72;;;3.42;;
870;SDS011;422;51.280;7.236;2022-07-19T11:14:54;4.40;;;3.42;;
870;SDS011;422;51.280;7.236;2022-07-19T11:17:25;3.08;;;2.88;;
870;SDS011;422;51.280;7.236;2022-07-19T11:19:56;5.13;;;3.80;;
870;SDS011;422;51.280;7.236;2022-07-19T11:22:26;8.15;;;4.40;;
870;SDS011;422;51.280;7.236;2022-07-19T11:25:05;3.80;;;3.20;;
870;SDS011;422;51.280;7.236;2022-07-19T11:27:35;3.95;;;3.63;;
870;SDS011;422;51.280;7.236;2022-07-19T11:30:09;4.40;;;3.75;;
870;SDS011;422;51.280;7.236;2022-07-19T11:32:40;4.53;;;3.63;;
870;SDS011;422;51.280;7.236;2022-07-19T11:35:11;4.55;;;3.75;;
870;SDS011;422;51.280;7.236;2022-07-19T11:37:48;4.07;;;3.78;;
870;SDS011;422;51.280;7.236;2022-07-19T11:40:18;4.60;;;3.85;;
870;SDS011;422;51.280;7.236;2022-07-19T11:42:48;4.53;;;4.13;;
870;SDS011;422;51.280;7.236;2022-07-19T11:45:19;5.97;;;3.72;;
870;SDS011;422;51.280;7.236;2022-07-19T11:47:54;8.43;;;4.03;;
870;SDS011;422;51.280;7.236;2022-07-19T11:50:23;4.80;;;4.40;;
870;SDS011;422;51.280;7.236;2022-07-19T11:52:56;4.40;;;4.00;;
870;SDS011;422;51.280;7.236;2022-07-19T11:55:27;4.40;;;3.28;;
870;SDS011;422;51.280;7.236;2022-07-19T11:58:04;4.57;;;4.18;;
870;SDS011;422;51.280;7.236;2022-07-19T12:00:34;4.90;;;4.47;;
870;SDS011;422;51.280;7.236;2022-07-19T12:03:03;4.35;;;3.72;;
870;SDS011;422;51.280;7.236;2022-07-19T12:05:35;4.75;;;3.50;;
870;SDS011;422;51.280;7.236;2022-07-19T12:08:05;5.57;;;4.10;;
870;SDS011;422;51.280;7.236;2022-07-19T12:10:38;6.68;;;3.67;;
870;SDS011;422;51.280;7.236;2022-07-19T12:13:14;4.20;;;3.90;;
870;SDS011;422;51.280;7.236;2022-07-19T12:15:42;4.32;;;4.03;;
870;SDS011;422;51.280;7.236;2022-07-19T12:18:21;3.80;;;3.50;;
870;SDS011;422;51.280;7.236;2022-07-19T12:29:24;4.15;;;3.83;;
870;SDS011;422;51.280;7.236;2022-07-19T12:31:54;7.88;;;3.55;;
870;SDS011;422;51.280;7.236;2022-07-19T12:34:23;5.28;;;4.30;;
870;SDS011;422;51.280;7.236;2022-07-19T12:36:50;4.10;;;3.80;;
870;SDS011;422;51.280;7.236;2022-07-19T12:39:21;4.97;;;4.03;;
870;SDS011;422;51.280;7.236;2022-07-19T12:41:54;7.22;;;3.85;;
870;SDS011;422;51.280;7.236;2022-07-19T12:44:37;4.00;;;3.70;;
870;SDS011;422;51.280;7.236;2022-07-19T12:47:08;4.88;;;4.10;;
870;SDS011;422;51.280;7.236;2022-07-19T12:49:43;4.72;;;4.25;;
870;SDS011;422;51.280;7.236;2022-07-19T12:52:14;3.17;;;2.92;;
870;SDS011;422;51.280;7.236;2022-07-19T12:54:43;4.93;;;3.35;;
870;SDS011;422;51.280;7.236;2022-07-19T12:57:19;4.78;;;4.43;;
870;SDS011;422;51.280;7.236;2022-07-19T12:59:46;4.32;;;3.92;;
870;SDS011;422;51.280;7.236;2022-07-19T13:02:14;4.95;;;4.50;;
870;SDS011;422;51.280;7.236;2022-07-19T13:04:43;4.18;;;3.78;;
870;SDS011;422;51.280;7.236;2022-07-19T13:07:13;5.10;;;4.60;;
870;SDS011;422;51.280;7.236;2022-07-19T13:09:46;4.53;;;4.22;;
870;SDS011;422;51.280;7.236;2022-07-19T13:12:19;4.28;;;3.97;;
870;SDS011;422;51.280;7.236;2022-07-19T13:14:53;3.65;;;3.35;;
870;SDS011;422;51.280;7.236;2022-07-19T13:17:21;3.63;;;3.42;;
870;SDS011;422;51.280;7.236;2022-07-19T13:19:49;4.47;;;4.07;;
870;SDS011;422;51.280;7.236;2022-07-19T13:22:16;4.63;;;4.03;;
870;SDS011;422;51.280;7.236;2022-07-19T13:24:44;6.40;;;3.40;;
870;SDS011;422;51.280;7.236;2022-07-19T13:27:12;4.05;;;3.75;;
870;SDS011;422;51.280;7.236;2022-07-19T13:29:42;5.45;;;3.47;;
870;SDS011;422;51.280;7.236;2022-07-19T13:32:10;8.10;;;4.32;;
870;SDS011;422;51.280;7.236;2022-07-19T13:34:41;3.92;;;3.63;;
870;SDS011;422;51.280;7.236;2022-07-19T13:37:11;3.42;;;3.22;;
870;SDS011;422;51.280;7.236;2022-07-19T13:39:39;3.75;;;3.55;;
870;SDS011;422;51.280;7.236;2022-07-19T13:42:06;4.20;;;3.67;;
870;SDS011;422;51.280;7.236;2022-07-19T13:44:35;4.18;;;3.78;;
870;SDS011;422;51.280;7.236;2022-07-19T13:47:03;4.03;;;3.72;;
870;SDS011;422;51.280;7.236;2022-07-19T13:49:31;8.93;;;3.67;;
870;SDS011;422;51.280;7.236;2022-07-19T13:52:01;4.65;;;3.67;;
870;SDS011;422;51.280;7.236;2022-07-19T13:54:29;3.88;;;3.45;;
870;SDS011;422;51.280;7.236;2022-07-19T13:56:59;6.68;;;3.90;;
870;SDS011;422;51.280;7.236;2022-07-19T13:59:26;3.85;;;3.60;;
870;SDS011;422;51.280;7.236;2022-07-19T14:01:57;3.85;;;3.55;;
870;SDS011;422;51.280;7.236;2022-07-19T14:04:27;5.38;;;3.83;;
870;SDS011;422;51.280;7.236;2022-07-19T14:07:05;4.95;;;3.70;;
870;SDS011;422;51.280;7.236;2022-07-19T14:09:32;5.68;;;3.60;;
870;SDS011;422;51.280;7.236;2022-07-19T14:12:03;4.25;;;3.45;;
870;SDS011;422;51.280;7.236;2022-07-19T14:14:32;6.47;;;3.35;;
870;SDS011;422;51.280;7.236;2022-07-19T14:17:02;4.38;;;3.97;;
870;SDS011;422;51.280;7.236;2022-07-19T14:19:35;4.55;;;4.15;;
870;SDS011;422;51.280;7.236;2022-07-19T14:22:04;4.25;;;3.95;;
870;SDS011;422;51.280;7.236;2022-07-19T14:24:32;4.05;;;3.38;;
870;SDS011;422;51.280;7.236;2022-07-19T14:27:05;3.67;;;3.38;;
870;SDS011;422;51.280;7.236;2022-07-19T14:29:38;3.42;;;3.10;;
870;SDS011;422;51.280;7.236;2022-07-19T14:32:12;4.13;;;3.67;;
870;SDS011;422;51.280;7.236;2022-07-19T14:34:40;3.58;;;3.28;;
870;SDS011;422;51.280;7.236;2022-07-19T14:37:07;5.57;;;3.85;;
870;SDS011;422;51.280;7.236;2022-07-19T14:39:35;4.75;;;4.45;;
870;SDS011;422;51.280;7.236;2022-07-19T14:42:03;3.97;;;3.50;;
870;SDS011;422;51.280;7.236;2022-07-19T14:44:30;4.22;;;3.92;;
870;SDS011;422;51.280;7.236;2022-07-19T14:46:58;4.18;;;3.63;;
870;SDS011;422;51.280;7.236;2022-07-19T14:49:27;5.20;;;3.45;;
870;SDS011;422;51.280;7.236;2022-07-19T14:51:55;4.00;;;3.60;;
870;SDS011;422;51.280;7.236;2022-07-19T14:54:27;4.18;;;3.20;;
870;SDS011;422;51.280;7.236;2022-07-19T14:56:55;5.00;;;3.38;;
870;SDS011;422;51.280;7.236;2022-07-19T14:59:24;7.73;;;3.27;;
870;SDS011;422;51.280;7.236;2022-07-19T15:01:53;3.90;;;3.43;;
870;SDS011;422;51.280;7.236;2022-07-19T15:04:22;3.50;;;3.23;;
870;SDS011;422;51.280;7.236;2022-07-19T15:06:53;3.60;;;3.30;;
870;SDS011;422;51.280;7.236;2022-07-19T15:09:20;5.23;;;3.63;;
870;SDS011;422;51.280;7.236;2022-07-19T15:11:50;6.00;;;3.77;;
870;SDS011;422;51.280;7.236;2022-07-19T15:14:29;4.10;;;3.80;;
870;SDS011;422;51.280;7.236;2022-07-19T15:16:56;4.17;;;3.63;;
870;SDS011;422;51.280;7.236;2022-07-19T15:19:24;6.03;;;3.50;;
870;SDS011;422;51.280;7.236;2022-07-19T15:21:53;4.20;;;3.80;;
870;SDS011;422;51.280;7.236;2022-07-19T15:24:20;4.33;;;3.47;;
870;SDS011;422;51.280;7.236;2022-07-19T15:26:48;8.47;;;4.70;;
870;SDS011;422;51.280;7.236;2022-07-19T15:29:15;3.90;;;3.63;;
870;SDS011;422;51.280;7.236;2022-07-19T15:31:43;5.30;;;4.40;;
870;SDS011;422;51.280;7.236;2022-07-19T15:34:15;4.70;;;3.97;;
870;SDS011;422;51.280;7.236;2022-07-19T15:36:44;5.23;;;4.17;;
870;SDS011;422;51.280;7.236;2022-07-19T15:39:18;4.23;;;3.93;;
870;SDS011;422;51.280;7.236;2022-07-19T15:41:45;5.53;;;5.03;;
870;SDS011;422;51.280;7.236;2022-07-19T15:44:13;4.07;;;3.60;;
870;SDS011;422;51.280;7.236;2022-07-19T15:46:40;5.20;;;4.77;;
870;SDS011;422;51.280;7.236;2022-07-19T15:49:07;5.60;;;3.80;;
870;SDS011;422;51.280;7.236;2022-07-19T15:51:35;4.70;;;4.00;;
870;SDS011;422;51.280;7.236;2022-07-19T15:54:10;5.23;;;4.67;;
870;SDS011;422;51.280;7.236;2022-07-19T15:56:46;4.27;;;3.87;;
870;SDS011;422;51.280;7.236;2022-07-19T15:59:13;8.33;;;4.00;;
870;SDS011;422;51.280;7.236;2022-07-19T16:01:43;4.20;;;3.90;;
870;SDS011;422;51.280;7.236;2022-07-19T16:04:11;6.83;;;4.60;;
870;SDS011;422;51.280;7.236;2022-07-19T16:06:39;5.67;;;4.20;;
870;SDS011;422;51.280;7.236;2022-07-19T16:09:06;4.60;;;4.17;;
870;SDS011;422;51.280;7.236;2022-07-19T16:11:35;4.97;;;4.57;;
870;SDS011;422;51.280;7.236;2022-07-19T16:14:05;4.40;;;4.10;;
870;SDS011;422;51.280;7.236;2022-07-19T16:16:32;5.20;;;4.70;;
870;SDS011;422;51.280;7.236;2022-07-19T16:19:03;5.40;;;3.73;;
870;SDS011;422;51.280;7.236;2022-07-19T16:21:31;4.63;;;4.23;;
870;SDS011;422;51.280;7.236;2022-07-19T16:23:58;4.00;;;3.63;;
870;SDS011;422;51.280;7.236;2022-07-19T16:26:28;3.87;;;3.53;;
870;SDS011;422;51.280;7.236;2022-07-19T16:29:00;4.50;;;4.10;;
870;SDS011;422;51.280;7.236;2022-07-19T16:31:29;5.47;;;4.73;;
870;SDS011;422;51.280;7.236;2022-07-19T16:33:59;9.30;;;4.43;;
870;SDS011;422;51.280;7.236;2022-07-19T16:36:26;5.77;;;3.57;;
870;SDS011;422;51.280;7.236;2022-07-19T16:38:54;4.37;;;3.97;;